createdAt,value
2023-02-06T00:00:53.651Z,12.63
2023-02-06T00:03:20.744Z,12.18
2023-02-06T00:05:55.586Z,10.02
2023-02-06T00:08:22.500Z,11.07
2023-02-06T00:10:49.436Z,10.40
2023-02-06T00:13:16.648Z,10.20
2023-02-06T00:15:44.270Z,9.70
2023-02-06T00:18:11.624Z,9.05
2023-02-06T00:20:38.789Z,8.35
2023-02-06T00:23:05.706Z,9.77
2023-02-06T00:25:32.921Z,9.25
2023-02-06T00:27:59.926Z,7.45
2023-02-06T00:30:27.181Z,7.68
2023-02-06T00:32:54.102Z,8.20
2023-02-06T00:35:21.107Z,8.53
2023-02-06T00:37:48.220Z,9.15
2023-02-06T00:40:15.155Z,9.50
2023-02-06T00:42:42.108Z,10.15
2023-02-06T00:45:10.421Z,11.15
2023-02-06T00:47:37.383Z,10.17
2023-02-06T00:50:05.975Z,10.10
2023-02-06T00:52:33.023Z,8.63
2023-02-06T00:54:59.979Z,8.15
2023-02-06T00:57:26.928Z,7.70
2023-02-06T00:59:54.433Z,8.40
2023-02-06T01:02:21.509Z,7.72
2023-02-06T01:04:48.695Z,7.97
2023-02-06T01:07:15.661Z,7.45
2023-02-06T01:09:42.518Z,7.43
2023-02-06T01:12:09.760Z,7.32
2023-02-06T01:14:36.641Z,7.55
2023-02-06T01:17:03.912Z,6.68
2023-02-06T01:19:30.929Z,7.40
2023-02-06T01:21:57.971Z,6.30
2023-02-06T01:24:24.928Z,6.28
2023-02-06T01:26:51.762Z,7.10
2023-02-06T01:29:18.604Z,6.70
2023-02-06T01:31:45.901Z,7.40
2023-02-06T01:34:12.964Z,6.93
2023-02-06T01:36:39.894Z,6.37
2023-02-06T01:39:07.426Z,6.55
2023-02-06T01:41:34.944Z,5.37
2023-02-06T01:44:13.978Z,5.40
2023-02-06T01:46:43.489Z,5.60
2023-02-06T01:49:17.191Z,6.07
2023-02-06T01:51:44.756Z,5.70
2023-02-06T01:54:13.983Z,5.33
2023-02-06T01:56:45.557Z,5.07
2023-02-06T01:59:12.816Z,5.10
2023-02-06T02:01:41.145Z,5.60
2023-02-06T02:04:13.441Z,5.68
2023-02-06T02:06:41.223Z,5.37
2023-02-06T02:09:08.310Z,4.15
2023-02-06T02:11:38.873Z,4.22
2023-02-06T02:14:10.112Z,3.90
2023-02-06T02:16:49.347Z,3.42
2023-02-06T02:19:19.160Z,3.33
2023-02-06T02:22:00.233Z,3.78
2023-02-06T02:24:48.971Z,3.37
2023-02-06T02:27:34.307Z,3.10
2023-02-06T02:30:07.736Z,3.60
2023-02-06T02:32:56.625Z,3.55
2023-02-06T02:35:53.749Z,3.35
2023-02-06T02:38:37.415Z,2.85
2023-02-06T02:41:07.799Z,3.30
2023-02-06T02:43:51.199Z,3.10
2023-02-06T02:46:31.645Z,2.80
2023-02-06T02:49:04.928Z,3.37
2023-02-06T02:51:34.271Z,3.80
2023-02-06T02:54:01.235Z,3.30
2023-02-06T02:56:29.851Z,3.62
2023-02-06T02:59:05.232Z,3.85
2023-02-06T03:01:56.173Z,3.83
2023-02-06T03:04:30.201Z,4.32
2023-02-06T03:07:06.658Z,4.97
2023-02-06T03:09:45.969Z,5.18
2023-02-06T03:12:24.352Z,5.55
2023-02-06T03:15:05.522Z,4.22
2023-02-06T03:17:44.706Z,3.50
2023-02-06T03:20:13.837Z,4.47
2023-02-06T03:22:47.106Z,4.47
2023-02-06T03:25:19.106Z,4.15
2023-02-06T03:27:47.706Z,4.30
2023-02-06T03:30:16.349Z,4.35
2023-02-06T03:32:47.278Z,4.37
2023-02-06T03:35:21.995Z,4.12
2023-02-06T03:37:49.624Z,3.33
2023-02-06T03:40:18.523Z,4.70
2023-02-06T03:42:56.287Z,3.95
2023-02-06T03:45:29.115Z,3.28
2023-02-06T03:48:03.795Z,3.30
2023-02-06T03:50:32.365Z,3.37
2023-02-06T03:53:02.231Z,2.72
2023-02-06T03:55:29.218Z,3.83
2023-02-06T03:58:01.545Z,3.28
2023-02-06T04:00:31.229Z,3.50
2023-02-06T04:02:59.350Z,3.90
2023-02-06T04:05:27.323Z,3.50
2023-02-06T04:07:56.535Z,3.53
2023-02-06T04:10:26.115Z,3.40
2023-02-06T04:12:53.700Z,3.67
2023-02-06T04:15:20.854Z,4.18
2023-02-06T04:17:59.431Z,3.58
2023-02-06T04:20:27.220Z,3.47
2023-02-06T04:22:54.293Z,3.15
2023-02-06T04:25:21.242Z,3.15
2023-02-06T04:27:48.271Z,3.15
2023-02-06T04:30:15.762Z,3.60
2023-02-06T04:32:43.947Z,3.60
2023-02-06T04:35:11.631Z,3.47
2023-02-06T04:37:38.596Z,4.15
2023-02-06T04:40:06.655Z,5.00
2023-02-06T04:42:35.483Z,4.80
2023-02-06T04:45:02.317Z,4.37
2023-02-06T04:47:29.923Z,4.55
2023-02-06T04:49:56.819Z,4.03
2023-02-06T04:52:23.781Z,5.03
2023-02-06T04:54:50.688Z,4.78
2023-02-06T04:57:17.689Z,4.43
2023-02-06T04:59:45.152Z,4.70
2023-02-06T05:02:12.142Z,5.03
2023-02-06T05:04:39.282Z,5.10
2023-02-06T05:07:06.559Z,4.70
2023-02-06T05:09:33.690Z,4.62
2023-02-06T05:12:00.659Z,4.80
2023-02-06T05:14:27.628Z,4.90
2023-02-06T05:16:54.538Z,4.22
2023-02-06T05:19:21.943Z,4.05
2023-02-06T05:21:48.855Z,3.83
2023-02-06T05:24:15.722Z,3.20
2023-02-06T05:26:42.581Z,3.58
2023-02-06T05:29:10.009Z,3.95
2023-02-06T05:31:37.188Z,3.08
2023-02-06T05:34:04.283Z,3.13
2023-02-06T05:36:31.218Z,4.40
2023-02-06T05:38:58.176Z,4.07
2023-02-06T05:41:25.645Z,4.12
2023-02-06T05:43:52.471Z,4.70
2023-02-06T05:46:19.557Z,4.78
2023-02-06T05:48:46.598Z,4.90
2023-02-06T05:51:13.770Z,4.25
2023-02-06T05:53:40.816Z,3.73
2023-02-06T05:56:07.748Z,4.68
2023-02-06T05:58:34.722Z,4.85
2023-02-06T06:01:01.868Z,3.90
2023-02-06T06:03:28.839Z,4.40
2023-02-06T06:05:55.831Z,4.63
2023-02-06T06:08:22.870Z,4.60
2023-02-06T06:10:51.405Z,4.60
2023-02-06T06:13:18.932Z,4.57
2023-02-06T06:15:45.951Z,4.80
2023-02-06T06:18:13.097Z,4.85
2023-02-06T06:20:41.481Z,7.30
2023-02-06T06:23:08.777Z,7.22
2023-02-06T06:25:36.560Z,6.50
2023-02-06T06:28:04.357Z,7.43
2023-02-06T06:30:32.021Z,6.05
2023-02-06T06:32:59.423Z,6.12
2023-02-06T06:35:26.808Z,7.25
2023-02-06T06:38:03.184Z,6.15
2023-02-06T06:40:30.196Z,12.77
2023-02-06T06:42:57.118Z,11.38
2023-02-06T06:45:24.077Z,10.18
2023-02-06T06:47:51.003Z,9.90
2023-02-06T06:50:18.182Z,8.43
2023-02-06T06:52:45.108Z,6.22
2023-02-06T06:55:12.048Z,7.12
2023-02-06T06:57:38.969Z,7.72
2023-02-06T07:00:09.332Z,7.65
2023-02-06T07:02:37.053Z,8.80
2023-02-06T07:05:04.584Z,8.05
2023-02-06T07:07:31.869Z,8.32
2023-02-06T07:10:02.116Z,8.15
2023-02-06T07:12:29.216Z,8.27
2023-02-06T07:14:56.418Z,9.45
2023-02-06T07:17:23.446Z,8.45
2023-02-06T07:19:52.514Z,8.82
2023-02-06T07:22:20.308Z,8.65
2023-02-06T07:24:47.672Z,7.07
2023-02-06T07:27:14.861Z,6.28
2023-02-06T07:29:41.756Z,6.97
2023-02-06T07:32:08.756Z,5.93
2023-02-06T07:34:36.257Z,5.20
2023-02-06T07:37:04.815Z,4.30
2023-02-06T07:39:32.166Z,4.03
2023-02-06T07:41:59.216Z,3.90
2023-02-06T07:44:26.377Z,3.50
2023-02-06T07:46:53.257Z,4.43
2023-02-06T07:49:20.350Z,4.27
2023-02-06T07:51:47.914Z,3.58
2023-02-06T07:54:15.338Z,4.00
2023-02-06T07:56:42.965Z,3.67
2023-02-06T07:59:10.574Z,3.60
2023-02-06T08:01:37.581Z,2.87
2023-02-06T08:04:04.629Z,3.40
2023-02-06T08:06:31.595Z,3.17
2023-02-06T08:08:58.478Z,3.58
2023-02-06T08:11:27.820Z,3.30
2023-02-06T08:13:54.674Z,3.40
2023-02-06T08:16:23.131Z,3.22
2023-02-06T08:18:50.517Z,3.42
2023-02-06T08:21:21.175Z,3.30
2023-02-06T08:23:53.848Z,3.62
2023-02-06T08:26:22.000Z,3.23
2023-02-06T08:28:50.818Z,2.62
2023-02-06T08:31:23.820Z,3.20
2023-02-06T08:33:51.685Z,3.22
2023-02-06T08:36:21.954Z,3.22
2023-02-06T08:38:52.539Z,3.63
2023-02-06T08:41:24.637Z,3.25
2023-02-06T08:43:56.361Z,3.25
2023-02-06T08:46:25.351Z,3.55
2023-02-06T08:49:01.311Z,3.67
2023-02-06T08:51:28.529Z,3.73
2023-02-06T08:53:57.254Z,3.62
2023-02-06T08:56:24.717Z,4.00
2023-02-06T08:58:51.943Z,4.03
2023-02-06T09:01:19.176Z,4.40
2023-02-06T09:03:46.985Z,4.80
2023-02-06T09:06:15.108Z,4.80
2023-02-06T09:08:42.580Z,4.40
2023-02-06T09:11:17.841Z,4.20
2023-02-06T09:13:49.269Z,5.03
2023-02-06T09:16:18.540Z,4.23
2023-02-06T17:33:21.195Z,10.43
2023-02-06T17:35:49.186Z,11.20
2023-02-06T17:38:16.698Z,10.25
2023-02-06T17:40:45.001Z,11.43
2023-02-06T17:43:12.036Z,11.47
2023-02-06T17:45:41.201Z,12.82
2023-02-06T17:48:08.939Z,13.85
2023-02-06T17:50:38.280Z,15.40
2023-02-06T17:53:07.472Z,15.40
2023-02-06T17:55:35.509Z,13.77
2023-02-06T17:58:04.368Z,11.57
2023-02-06T18:00:33.256Z,14.63
2023-02-06T18:03:00.873Z,16.85
2023-02-06T18:05:28.174Z,15.52
2023-02-06T18:07:56.281Z,17.27
2023-02-06T18:10:26.400Z,14.82
2023-02-06T18:12:53.949Z,15.40
2023-02-06T18:15:21.812Z,19.12
2023-02-06T18:17:54.973Z,16.90
2023-02-06T18:20:23.327Z,29.87
2023-02-06T18:22:51.297Z,26.50
2023-02-06T18:25:19.095Z,27.77
2023-02-06T18:27:46.888Z,30.23
2023-02-06T18:30:17.378Z,56.70
2023-02-06T18:32:45.707Z,45.03
2023-02-06T18:35:15.441Z,45.20
2023-02-06T18:37:44.393Z,39.33
2023-02-06T18:40:12.849Z,41.08
2023-02-06T18:45:50.657Z,25.13
2023-02-06T18:48:19.369Z,23.95
2023-02-06T18:50:47.082Z,21.33
2023-02-06T18:53:16.428Z,19.80
2023-02-06T18:55:44.933Z,16.80
2023-02-06T18:58:13.075Z,15.10
2023-02-06T19:00:45.579Z,13.85
2023-02-06T19:03:14.041Z,14.55
2023-02-06T19:05:42.463Z,14.35
2023-02-06T19:08:11.273Z,15.23
2023-02-06T19:10:40.843Z,14.37
2023-02-06T19:13:09.024Z,16.50
2023-02-06T19:15:39.203Z,21.73
2023-02-06T19:18:08.318Z,18.77
2023-02-06T19:20:37.145Z,19.90
2023-02-06T19:23:06.692Z,22.27
2023-02-06T19:25:36.702Z,22.30
2023-02-06T19:28:05.036Z,18.95
2023-02-06T19:30:34.601Z,18.55
2023-02-06T19:33:02.217Z,21.20
2023-02-06T19:35:30.663Z,19.80
2023-02-06T19:38:02.424Z,19.87
2023-02-06T19:40:30.808Z,18.08
2023-02-06T19:43:00.127Z,18.52
2023-02-06T19:45:28.939Z,16.73
2023-02-06T19:47:57.832Z,17.30
2023-02-06T19:50:25.552Z,17.55
2023-02-06T19:52:54.690Z,17.70
2023-02-06T19:55:23.140Z,17.50
2023-02-06T19:57:51.685Z,17.25
2023-02-06T20:00:20.646Z,18.67
2023-02-06T20:02:49.282Z,17.80
2023-02-06T20:05:20.696Z,17.65
2023-02-06T20:07:48.794Z,17.85
2023-02-06T20:10:19.069Z,17.60
2023-02-06T20:12:49.518Z,15.80
2023-02-06T20:15:18.978Z,16.87
2023-02-06T20:17:53.032Z,16.70
2023-02-06T20:20:21.609Z,17.83
2023-02-06T20:22:53.276Z,16.35
2023-02-06T20:25:21.984Z,18.80
2023-02-06T20:27:50.694Z,18.67
2023-02-06T20:30:28.526Z,18.87
2023-02-06T20:32:59.084Z,19.87
2023-02-06T20:35:27.080Z,18.58
2023-02-06T20:37:55.579Z,19.47
2023-02-06T20:40:23.678Z,20.12
2023-02-06T20:42:51.958Z,21.17
2023-02-06T20:45:19.907Z,21.42
2023-02-06T20:47:47.651Z,20.83
2023-02-06T20:50:17.174Z,20.37
2023-02-06T20:52:47.978Z,19.48
2023-02-06T20:55:15.555Z,18.33
2023-02-06T20:57:43.385Z,17.10
2023-02-06T21:00:13.751Z,17.02
2023-02-06T21:02:41.092Z,17.57
2023-02-06T21:05:08.768Z,17.12
2023-02-06T21:07:38.219Z,18.30
2023-02-06T21:10:05.985Z,17.48
2023-02-06T21:12:33.544Z,17.45
2023-02-06T21:15:03.518Z,18.83
2023-02-06T21:17:30.523Z,18.92
2023-02-06T21:19:59.959Z,19.48
2023-02-06T21:22:27.253Z,18.87
2023-02-06T21:24:54.689Z,19.70
2023-02-06T21:27:21.669Z,17.43
2023-02-06T21:29:48.620Z,17.17
2023-02-06T21:32:15.763Z,17.55
2023-02-06T21:34:42.944Z,20.27
2023-02-06T21:37:09.963Z,21.17
2023-02-06T21:39:38.846Z,19.97
2023-02-06T21:42:06.698Z,20.73
2023-02-06T21:44:34.222Z,22.10
2023-02-06T21:47:01.091Z,21.92
2023-02-06T21:49:28.095Z,21.15
2023-02-06T21:51:58.566Z,19.80
2023-02-06T21:54:25.897Z,18.30
2023-02-06T21:56:52.941Z,18.80
2023-02-06T21:59:19.813Z,23.25
2023-02-06T22:01:46.742Z,23.33
2023-02-06T22:04:13.646Z,20.43
2023-02-06T22:06:40.971Z,19.77
2023-02-06T22:09:15.164Z,19.05
2023-02-06T22:11:42.608Z,19.02
2023-02-06T22:14:13.431Z,18.62
2023-02-06T22:16:40.905Z,17.20
2023-02-06T22:19:08.158Z,17.60
2023-02-06T22:21:35.982Z,17.77
2023-02-06T22:24:06.282Z,16.50
2023-02-06T22:26:36.903Z,14.98
2023-02-06T22:29:05.823Z,14.77
2023-02-06T22:31:35.172Z,14.15
2023-02-06T22:34:02.989Z,14.15
2023-02-06T22:36:32.130Z,14.40
2023-02-06T22:39:10.065Z,14.80
2023-02-06T22:41:39.502Z,13.93
2023-02-06T22:44:06.630Z,20.33
2023-02-06T22:46:36.493Z,19.33
2023-02-06T22:49:06.144Z,20.60
2023-02-06T22:51:33.477Z,17.67
2023-02-06T22:54:00.771Z,15.27
2023-02-06T22:56:36.151Z,16.20
2023-02-06T22:59:12.698Z,13.35
2023-02-06T23:01:45.588Z,13.00
2023-02-06T23:04:23.295Z,14.03
2023-02-06T23:06:51.197Z,14.10
2023-02-06T23:09:27.177Z,13.02
2023-02-06T23:11:54.991Z,12.73
2023-02-06T23:14:21.930Z,12.53
2023-02-06T23:16:49.129Z,12.63
2023-02-06T23:19:17.040Z,12.37
2023-02-06T23:21:46.354Z,12.98
2023-02-06T23:24:14.292Z,12.13
2023-02-06T23:26:43.725Z,13.37
2023-02-06T23:29:15.894Z,12.82
2023-02-06T23:31:44.578Z,12.75
2023-02-06T23:34:12.589Z,12.85
2023-02-06T23:36:39.760Z,12.97
2023-02-06T23:39:06.778Z,13.48
2023-02-06T23:41:34.497Z,12.40
2023-02-06T23:44:04.724Z,14.27
2023-02-06T23:46:33.687Z,14.53
2023-02-06T23:49:00.674Z,13.48
2023-02-06T23:51:27.775Z,14.02
2023-02-06T23:53:54.809Z,13.48
2023-02-06T23:56:25.307Z,13.50
2023-02-06T23:58:53.827Z,12.60
